sensor_id;sensor_type;location;lat;lon;timestamp;P1;durP1;ratioP1;P2;durP2;ratioP2
79570;SDS011;69034;49.444;7.758;2023-06-22T00:01:40;5.07;;;2.80;;
79570;SDS011;69034;49.444;7.758;2023-06-22T00:05:41;5.45;;;3.00;;
79570;SDS011;69034;49.444;7.758;2023-06-22T00:09:41;6.90;;;2.92;;
79570;SDS011;69034;49.444;7.758;2023-06-22T00:13:42;8.48;;;4.15;;
79570;SDS011;69034;49.444;7.758;2023-06-22T00:17:43;5.57;;;3.08;;
79570;SDS011;69034;49.444;7.758;2023-06-22T00:21:43;5.90;;;3.30;;
79570;SDS011;69034;49.444;7.758;2023-06-22T00:25:47;7.85;;;3.78;;
79570;SDS011;69034;49.444;7.758;2023-06-22T00:29:47;7.55;;;3.42;;
79570;SDS011;69034;49.444;7.758;2023-06-22T00:33:48;8.77;;;4.63;;
79570;SDS011;69034;49.444;7.758;2023-06-22T00:37:50;7.70;;;3.38;;
79570;SDS011;69034;49.444;7.758;2023-06-22T00:41:51;7.57;;;4.03;;
79570;SDS011;69034;49.444;7.758;2023-06-22T00:45:52;5.70;;;3.50;;
79570;SDS011;69034;49.444;7.758;2023-06-22T00:49:56;7.40;;;3.42;;
79570;SDS011;69034;49.444;7.758;2023-06-22T00:53:57;6.75;;;3.85;;
79570;SDS011;69034;49.444;7.758;2023-06-22T00:57:58;6.80;;;3.28;;
79570;SDS011;69034;49.444;7.758;2023-06-22T01:01:59;5.90;;;3.22;;
79570;SDS011;69034;49.444;7.758;2023-06-22T01:06:06;9.18;;;4.85;;
79570;SDS011;69034;49.444;7.758;2023-06-22T01:14:24;8.43;;;5.07;;
79570;SDS011;69034;49.444;7.758;2023-06-22T01:18:32;6.50;;;3.35;;
79570;SDS011;69034;49.444;7.758;2023-06-22T01:22:40;7.93;;;4.22;;
79570;SDS011;69034;49.444;7.758;2023-06-22T01:31:27;7.05;;;3.72;;
79570;SDS011;69034;49.444;7.758;2023-06-22T01:35:29;5.72;;;3.17;;
79570;SDS011;69034;49.444;7.758;2023-06-22T01:39:31;6.63;;;3.38;;
79570;SDS011;69034;49.444;7.758;2023-06-22T01:43:32;8.43;;;3.55;;
79570;SDS011;69034;49.444;7.758;2023-06-22T01:47:34;6.32;;;3.30;;
79570;SDS011;69034;49.444;7.758;2023-06-22T01:51:34;6.25;;;3.70;;
79570;SDS011;69034;49.444;7.758;2023-06-22T01:55:35;7.82;;;3.53;;
79570;SDS011;69034;49.444;7.758;2023-06-22T01:59:41;6.10;;;3.50;;
79570;SDS011;69034;49.444;7.758;2023-06-22T02:03:48;6.85;;;3.70;;
79570;SDS011;69034;49.444;7.758;2023-06-22T02:08:02;6.30;;;3.78;;
79570;SDS011;69034;49.444;7.758;2023-06-22T02:12:17;6.13;;;3.58;;
79570;SDS011;69034;49.444;7.758;2023-06-22T02:16:21;7.45;;;3.88;;
79570;SDS011;69034;49.444;7.758;2023-06-22T02:20:23;8.18;;;3.35;;
79570;SDS011;69034;49.444;7.758;2023-06-22T02:24:24;7.65;;;2.80;;
79570;SDS011;69034;49.444;7.758;2023-06-22T02:28:25;7.35;;;3.22;;
79570;SDS011;69034;49.444;7.758;2023-06-22T02:32:25;6.63;;;3.28;;
79570;SDS011;69034;49.444;7.758;2023-06-22T02:36:26;7.15;;;3.05;;
79570;SDS011;69034;49.444;7.758;2023-06-22T02:40:28;5.55;;;3.03;;
79570;SDS011;69034;49.444;7.758;2023-06-22T02:44:31;8.00;;;3.60;;
79570;SDS011;69034;49.444;7.758;2023-06-22T02:52:42;5.90;;;3.35;;
79570;SDS011;69034;49.444;7.758;2023-06-22T02:56:42;8.85;;;4.20;;
79570;SDS011;69034;49.444;7.758;2023-06-22T03:00:46;7.13;;;2.83;;
79570;SDS011;69034;49.444;7.758;2023-06-22T03:04:46;7.28;;;3.58;;
79570;SDS011;69034;49.444;7.758;2023-06-22T03:08:49;6.95;;;3.45;;
79570;SDS011;69034;49.444;7.758;2023-06-22T03:12:50;7.88;;;3.65;;
79570;SDS011;69034;49.444;7.758;2023-06-22T03:16:53;6.82;;;3.70;;
79570;SDS011;69034;49.444;7.758;2023-06-22T03:20:53;8.70;;;4.07;;
79570;SDS011;69034;49.444;7.758;2023-06-22T03:24:54;6.47;;;3.38;;
79570;SDS011;69034;49.444;7.758;2023-06-22T03:28:55;6.43;;;3.47;;
79570;SDS011;69034;49.444;7.758;2023-06-22T03:32:56;6.38;;;3.03;;
79570;SDS011;69034;49.444;7.758;2023-06-22T03:36:58;8.57;;;4.40;;
79570;SDS011;69034;49.444;7.758;2023-06-22T03:40:58;8.85;;;3.60;;
79570;SDS011;69034;49.444;7.758;2023-06-22T03:44:59;6.20;;;3.28;;
79570;SDS011;69034;49.444;7.758;2023-06-22T03:49:01;5.28;;;2.90;;
79570;SDS011;69034;49.444;7.758;2023-06-22T03:53:03;7.18;;;3.40;;
79570;SDS011;69034;49.444;7.758;2023-06-22T03:57:04;5.93;;;3.00;;
79570;SDS011;69034;49.444;7.758;2023-06-22T04:01:05;6.03;;;3.17;;
79570;SDS011;69034;49.444;7.758;2023-06-22T04:05:06;5.82;;;3.15;;
79570;SDS011;69034;49.444;7.758;2023-06-22T04:09:08;6.15;;;3.25;;
79570;SDS011;69034;49.444;7.758;2023-06-22T04:13:09;9.25;;;4.60;;
79570;SDS011;69034;49.444;7.758;2023-06-22T04:17:09;5.53;;;2.75;;
79570;SDS011;69034;49.444;7.758;2023-06-22T04:21:14;5.88;;;2.97;;
79570;SDS011;69034;49.444;7.758;2023-06-22T04:25:15;8.18;;;2.95;;
79570;SDS011;69034;49.444;7.758;2023-06-22T04:29:15;5.57;;;2.92;;
79570;SDS011;69034;49.444;7.758;2023-06-22T04:33:16;6.00;;;2.58;;
79570;SDS011;69034;49.444;7.758;2023-06-22T04:37:19;5.65;;;2.85;;
79570;SDS011;69034;49.444;7.758;2023-06-22T04:41:23;7.22;;;4.30;;
79570;SDS011;69034;49.444;7.758;2023-06-22T04:45:23;7.97;;;4.60;;
79570;SDS011;69034;49.444;7.758;2023-06-22T04:49:24;5.05;;;2.88;;
79570;SDS011;69034;49.444;7.758;2023-06-22T04:53:32;7.43;;;3.08;;
79570;SDS011;69034;49.444;7.758;2023-06-22T04:57:33;6.50;;;3.80;;
79570;SDS011;69034;49.444;7.758;2023-06-22T05:01:34;8.50;;;4.60;;
79570;SDS011;69034;49.444;7.758;2023-06-22T05:05:36;6.80;;;3.78;;
79570;SDS011;69034;49.444;7.758;2023-06-22T05:09:36;6.43;;;3.95;;
79570;SDS011;69034;49.444;7.758;2023-06-22T05:13:37;6.25;;;3.15;;
79570;SDS011;69034;49.444;7.758;2023-06-22T05:17:38;6.97;;;3.97;;
79570;SDS011;69034;49.444;7.758;2023-06-22T05:21:42;6.20;;;3.38;;
79570;SDS011;69034;49.444;7.758;2023-06-22T05:25:43;9.98;;;4.82;;
79570;SDS011;69034;49.444;7.758;2023-06-22T05:29:44;11.88;;;6.43;;
79570;SDS011;69034;49.444;7.758;2023-06-22T05:33:44;10.95;;;6.35;;
79570;SDS011;69034;49.444;7.758;2023-06-22T05:37:46;12.35;;;5.15;;
79570;SDS011;69034;49.444;7.758;2023-06-22T05:41:46;12.75;;;7.88;;
79570;SDS011;69034;49.444;7.758;2023-06-22T05:45:47;13.85;;;5.30;;
79570;SDS011;69034;49.444;7.758;2023-06-22T05:49:49;12.77;;;6.13;;
79570;SDS011;69034;49.444;7.758;2023-06-22T05:53:51;14.13;;;6.18;;
79570;SDS011;69034;49.444;7.758;2023-06-22T05:57:51;13.38;;;7.00;;
79570;SDS011;69034;49.444;7.758;2023-06-22T06:01:52;10.68;;;6.53;;
79570;SDS011;69034;49.444;7.758;2023-06-22T06:05:53;10.25;;;6.35;;
79570;SDS011;69034;49.444;7.758;2023-06-22T06:09:53;8.95;;;5.70;;
79570;SDS011;69034;49.444;7.758;2023-06-22T06:13:54;10.68;;;6.10;;
79570;SDS011;69034;49.444;7.758;2023-06-22T06:17:55;8.95;;;4.88;;
79570;SDS011;69034;49.444;7.758;2023-06-22T06:21:56;17.20;;;6.32;;
79570;SDS011;69034;49.444;7.758;2023-06-22T06:25:58;12.20;;;5.32;;
79570;SDS011;69034;49.444;7.758;2023-06-22T06:29:59;12.32;;;6.80;;
79570;SDS011;69034;49.444;7.758;2023-06-22T06:34:00;18.70;;;5.45;;
79570;SDS011;69034;49.444;7.758;2023-06-22T06:38:02;11.55;;;5.88;;
79570;SDS011;69034;49.444;7.758;2023-06-22T06:42:04;9.35;;;5.30;;
79570;SDS011;69034;49.444;7.758;2023-06-22T06:46:05;13.68;;;5.65;;
79570;SDS011;69034;49.444;7.758;2023-06-22T06:50:06;12.45;;;6.57;;
79570;SDS011;69034;49.444;7.758;2023-06-22T06:54:07;12.90;;;5.93;;
79570;SDS011;69034;49.444;7.758;2023-06-22T06:58:08;9.98;;;4.43;;
79570;SDS011;69034;49.444;7.758;2023-06-22T07:02:09;9.80;;;4.82;;
79570;SDS011;69034;49.444;7.758;2023-06-22T07:06:10;10.73;;;6.25;;
79570;SDS011;69034;49.444;7.758;2023-06-22T07:10:11;11.27;;;6.28;;
79570;SDS011;69034;49.444;7.758;2023-06-22T07:14:12;9.40;;;5.25;;
79570;SDS011;69034;49.444;7.758;2023-06-22T07:18:13;8.63;;;5.00;;
79570;SDS011;69034;49.444;7.758;2023-06-22T07:22:14;10.88;;;5.60;;
79570;SDS011;69034;49.444;7.758;2023-06-22T07:26:14;7.65;;;5.18;;
79570;SDS011;69034;49.444;7.758;2023-06-22T07:30:16;8.40;;;4.65;;
79570;SDS011;69034;49.444;7.758;2023-06-22T07:34:17;10.57;;;5.53;;
79570;SDS011;69034;49.444;7.758;2023-06-22T07:38:18;12.80;;;6.13;;
79570;SDS011;69034;49.444;7.758;2023-06-22T07:42:19;8.95;;;5.10;;
79570;SDS011;69034;49.444;7.758;2023-06-22T07:46:20;7.07;;;4.55;;
79570;SDS011;69034;49.444;7.758;2023-06-22T07:50:21;9.98;;;4.82;;
79570;SDS011;69034;49.444;7.758;2023-06-22T07:54:22;6.88;;;4.20;;
79570;SDS011;69034;49.444;7.758;2023-06-22T07:58:23;6.85;;;4.22;;
79570;SDS011;69034;49.444;7.758;2023-06-22T08:02:24;8.77;;;4.22;;
79570;SDS011;69034;49.444;7.758;2023-06-22T08:06:24;9.77;;;3.63;;
79570;SDS011;69034;49.444;7.758;2023-06-22T08:10:25;7.53;;;4.60;;
79570;SDS011;69034;49.444;7.758;2023-06-22T08:14:26;13.38;;;4.03;;
79570;SDS011;69034;49.444;7.758;2023-06-22T08:18:28;7.07;;;3.95;;
79570;SDS011;69034;49.444;7.758;2023-06-22T08:22:29;5.70;;;3.58;;
79570;SDS011;69034;49.444;7.758;2023-06-22T08:26:30;7.75;;;4.30;;
79570;SDS011;69034;49.444;7.758;2023-06-22T08:30:33;6.30;;;3.70;;
79570;SDS011;69034;49.444;7.758;2023-06-22T08:34:34;7.78;;;3.85;;
79570;SDS011;69034;49.444;7.758;2023-06-22T08:38:36;6.10;;;3.40;;
79570;SDS011;69034;49.444;7.758;2023-06-22T08:42:36;8.65;;;4.10;;
79570;SDS011;69034;49.444;7.758;2023-06-22T08:46:38;6.80;;;4.00;;
79570;SDS011;69034;49.444;7.758;2023-06-22T08:50:40;9.43;;;4.10;;
79570;SDS011;69034;49.444;7.758;2023-06-22T08:54:42;6.47;;;4.10;;
79570;SDS011;69034;49.444;7.758;2023-06-22T08:58:43;6.32;;;3.65;;
79570;SDS011;69034;49.444;7.758;2023-06-22T09:02:44;6.15;;;3.85;;
79570;SDS011;69034;49.444;7.758;2023-06-22T09:06:45;7.35;;;3.90;;
79570;SDS011;69034;49.444;7.758;2023-06-22T09:10:46;7.05;;;3.88;;
79570;SDS011;69034;49.444;7.758;2023-06-22T09:14:46;6.00;;;3.25;;
79570;SDS011;69034;49.444;7.758;2023-06-22T09:18:47;7.53;;;3.58;;
79570;SDS011;69034;49.444;7.758;2023-06-22T09:22:48;6.78;;;4.00;;
79570;SDS011;69034;49.444;7.758;2023-06-22T09:26:49;7.07;;;3.20;;
79570;SDS011;69034;49.444;7.758;2023-06-22T09:30:50;5.45;;;3.63;;
79570;SDS011;69034;49.444;7.758;2023-06-22T09:34:51;7.72;;;3.58;;
79570;SDS011;69034;49.444;7.758;2023-06-22T09:38:52;8.93;;;4.57;;
79570;SDS011;69034;49.444;7.758;2023-06-22T09:42:55;6.25;;;3.58;;
79570;SDS011;69034;49.444;7.758;2023-06-22T09:46:56;6.63;;;3.63;;
79570;SDS011;69034;49.444;7.758;2023-06-22T09:50:58;7.53;;;4.40;;
79570;SDS011;69034;49.444;7.758;2023-06-22T09:54:59;7.68;;;3.97;;
79570;SDS011;69034;49.444;7.758;2023-06-22T09:58:59;8.05;;;3.80;;
79570;SDS011;69034;49.444;7.758;2023-06-22T10:03:02;10.45;;;3.92;;
79570;SDS011;69034;49.444;7.758;2023-06-22T10:07:03;12.40;;;3.35;;
79570;SDS011;69034;49.444;7.758;2023-06-22T10:11:04;7.35;;;4.32;;
79570;SDS011;69034;49.444;7.758;2023-06-22T10:15:05;7.70;;;4.03;;
79570;SDS011;69034;49.444;7.758;2023-06-22T10:19:06;7.20;;;3.58;;
79570;SDS011;69034;49.444;7.758;2023-06-22T10:23:07;6.78;;;4.05;;
79570;SDS011;69034;49.444;7.758;2023-06-22T10:27:07;7.05;;;3.75;;
79570;SDS011;69034;49.444;7.758;2023-06-22T10:31:08;10.30;;;3.92;;
79570;SDS011;69034;49.444;7.758;2023-06-22T10:35:09;8.15;;;3.65;;
79570;SDS011;69034;49.444;7.758;2023-06-22T10:39:15;7.80;;;3.42;;
79570;SDS011;69034;49.444;7.758;2023-06-22T10:43:16;7.22;;;4.03;;
79570;SDS011;69034;49.444;7.758;2023-06-22T10:47:17;11.95;;;4.10;;
79570;SDS011;69034;49.444;7.758;2023-06-22T10:51:17;8.38;;;3.85;;
79570;SDS011;69034;49.444;7.758;2023-06-22T10:55:18;6.00;;;3.70;;
79570;SDS011;69034;49.444;7.758;2023-06-22T10:59:19;8.23;;;3.72;;
79570;SDS011;69034;49.444;7.758;2023-06-22T11:03:22;6.20;;;3.75;;
79570;SDS011;69034;49.444;7.758;2023-06-22T11:07:23;8.38;;;3.90;;
79570;SDS011;69034;49.444;7.758;2023-06-22T11:11:25;9.05;;;3.80;;
79570;SDS011;69034;49.444;7.758;2023-06-22T11:15:25;7.63;;;3.67;;
79570;SDS011;69034;49.444;7.758;2023-06-22T11:19:27;8.30;;;3.42;;
79570;SDS011;69034;49.444;7.758;2023-06-22T11:23:28;6.10;;;3.70;;
79570;SDS011;69034;49.444;7.758;2023-06-22T11:27:29;11.20;;;4.32;;
79570;SDS011;69034;49.444;7.758;2023-06-22T11:31:30;14.02;;;3.92;;
79570;SDS011;69034;49.444;7.758;2023-06-22T11:35:31;8.68;;;4.05;;
79570;SDS011;69034;49.444;7.758;2023-06-22T11:39:33;6.75;;;3.72;;
79570;SDS011;69034;49.444;7.758;2023-06-22T11:43:34;13.43;;;4.25;;
79570;SDS011;69034;49.444;7.758;2023-06-22T11:47:37;6.68;;;3.00;;
79570;SDS011;69034;49.444;7.758;2023-06-22T11:51:39;8.07;;;3.72;;
79570;SDS011;69034;49.444;7.758;2023-06-22T11:55:39;8.80;;;2.95;;
79570;SDS011;69034;49.444;7.758;2023-06-22T11:59:41;10.88;;;3.75;;
79570;SDS011;69034;49.444;7.758;2023-06-22T12:03:42;6.15;;;3.67;;
79570;SDS011;69034;49.444;7.758;2023-06-22T12:07:43;8.93;;;3.83;;
79570;SDS011;69034;49.444;7.758;2023-06-22T12:11:44;7.70;;;3.30;;
79570;SDS011;69034;49.444;7.758;2023-06-22T12:15:45;11.93;;;4.03;;
79570;SDS011;69034;49.444;7.758;2023-06-22T12:19:45;9.55;;;3.95;;
79570;SDS011;69034;49.444;7.758;2023-06-22T12:23:47;9.10;;;3.42;;
79570;SDS011;69034;49.444;7.758;2023-06-22T12:27:48;6.57;;;3.10;;
79570;SDS011;69034;49.444;7.758;2023-06-22T12:31:49;9.13;;;3.90;;
79570;SDS011;69034;49.444;7.758;2023-06-22T12:35:49;7.85;;;3.55;;
79570;SDS011;69034;49.444;7.758;2023-06-22T12:39:50;8.20;;;4.10;;
79570;SDS011;69034;49.444;7.758;2023-06-22T12:43:51;10.15;;;3.80;;
79570;SDS011;69034;49.444;7.758;2023-06-22T12:47:51;10.23;;;3.75;;
79570;SDS011;69034;49.444;7.758;2023-06-22T12:51:52;10.45;;;3.83;;
79570;SDS011;69034;49.444;7.758;2023-06-22T12:55:53;10.95;;;3.95;;
79570;SDS011;69034;49.444;7.758;2023-06-22T12:59:54;10.88;;;3.95;;
79570;SDS011;69034;49.444;7.758;2023-06-22T13:03:54;9.68;;;3.72;;
79570;SDS011;69034;49.444;7.758;2023-06-22T13:07:55;10.55;;;3.22;;
79570;SDS011;69034;49.444;7.758;2023-06-22T13:11:56;9.25;;;3.80;;
79570;SDS011;69034;49.444;7.758;2023-06-22T13:15:56;8.77;;;3.53;;
79570;SDS011;69034;49.444;7.758;2023-06-22T13:19:57;9.65;;;3.50;;
79570;SDS011;69034;49.444;7.758;2023-06-22T13:23:58;11.35;;;3.40;;
79570;SDS011;69034;49.444;7.758;2023-06-22T13:27:58;11.05;;;3.53;;
79570;SDS011;69034;49.444;7.758;2023-06-22T13:32:02;7.88;;;3.05;;
79570;SDS011;69034;49.444;7.758;2023-06-22T13:36:03;9.93;;;3.58;;
79570;SDS011;69034;49.444;7.758;2023-06-22T13:40:06;9.48;;;3.45;;
79570;SDS011;69034;49.444;7.758;2023-06-22T13:44:08;9.15;;;4.03;;
79570;SDS011;69034;49.444;7.758;2023-06-22T13:48:09;11.43;;;3.50;;
79570;SDS011;69034;49.444;7.758;2023-06-22T13:52:09;10.70;;;3.30;;
79570;SDS011;69034;49.444;7.758;2023-06-22T13:56:12;10.13;;;3.95;;
79570;SDS011;69034;49.444;7.758;2023-06-22T14:00:13;10.35;;;3.65;;
79570;SDS011;69034;49.444;7.758;2023-06-22T14:04:14;9.10;;;3.33;;
79570;SDS011;69034;49.444;7.758;2023-06-22T14:08:15;12.82;;;4.53;;
79570;SDS011;69034;49.444;7.758;2023-06-22T14:12:16;8.57;;;3.05;;
79570;SDS011;69034;49.444;7.758;2023-06-22T14:16:18;10.02;;;3.13;;
79570;SDS011;69034;49.444;7.758;2023-06-22T14:20:18;9.43;;;3.72;;
79570;SDS011;69034;49.444;7.758;2023-06-22T14:24:19;8.02;;;3.20;;
79570;SDS011;69034;49.444;7.758;2023-06-22T14:28:19;11.57;;;3.65;;
79570;SDS011;69034;49.444;7.758;2023-06-22T14:32:20;12.35;;;3.50;;
79570;SDS011;69034;49.444;7.758;2023-06-22T14:36:21;9.52;;;3.40;;
79570;SDS011;69034;49.444;7.758;2023-06-22T14:40:22;11.98;;;3.05;;
79570;SDS011;69034;49.444;7.758;2023-06-22T14:44:22;17.88;;;3.60;;
79570;SDS011;69034;49.444;7.758;2023-06-22T14:52:33;12.57;;;3.10;;
79570;SDS011;69034;49.444;7.758;2023-06-22T14:56:33;6.82;;;3.05;;
79570;SDS011;69034;49.444;7.758;2023-06-22T15:00:35;10.90;;;2.72;;
79570;SDS011;69034;49.444;7.758;2023-06-22T15:04:35;12.35;;;2.88;;
79570;SDS011;69034;49.444;7.758;2023-06-22T15:08:37;6.68;;;2.78;;
79570;SDS011;69034;49.444;7.758;2023-06-22T15:12:38;8.85;;;2.63;;
79570;SDS011;69034;49.444;7.758;2023-06-22T15:16:39;11.85;;;3.00;;
79570;SDS011;69034;49.444;7.758;2023-06-22T15:20:40;7.07;;;2.42;;
79570;SDS011;69034;49.444;7.758;2023-06-22T15:28:45;8.65;;;3.33;;
79570;SDS011;69034;49.444;7.758;2023-06-22T15:32:46;14.02;;;3.20;;
79570;SDS011;69034;49.444;7.758;2023-06-22T15:36:47;9.18;;;3.00;;
79570;SDS011;69034;49.444;7.758;2023-06-22T15:40:48;6.82;;;2.90;;
79570;SDS011;69034;49.444;7.758;2023-06-22T15:44:49;7.50;;;2.08;;
79570;SDS011;69034;49.444;7.758;2023-06-22T15:48:49;6.55;;;2.05;;
79570;SDS011;69034;49.444;7.758;2023-06-22T15:52:50;8.23;;;2.25;;
79570;SDS011;69034;49.444;7.758;2023-06-22T15:56:52;6.43;;;2.05;;
79570;SDS011;69034;49.444;7.758;2023-06-22T16:00:52;6.90;;;2.10;;
79570;SDS011;69034;49.444;7.758;2023-06-22T16:04:54;8.90;;;2.20;;
79570;SDS011;69034;49.444;7.758;2023-06-22T16:08:56;6.82;;;2.50;;
79570;SDS011;69034;49.444;7.758;2023-06-22T16:12:57;5.05;;;1.83;;
79570;SDS011;69034;49.444;7.758;2023-06-22T16:16:57;6.63;;;1.77;;
79570;SDS011;69034;49.444;7.758;2023-06-22T16:20:58;8.68;;;2.38;;
79570;SDS011;69034;49.444;7.758;2023-06-22T16:24:59;8.60;;;2.30;;
79570;SDS011;69034;49.444;7.758;2023-06-22T16:29:00;8.95;;;2.45;;
79570;SDS011;69034;49.444;7.758;2023-06-22T16:33:01;7.15;;;2.13;;
79570;SDS011;69034;49.444;7.758;2023-06-22T16:37:02;5.25;;;1.95;;
79570;SDS011;69034;49.444;7.758;2023-06-22T16:41:03;7.53;;;2.03;;
79570;SDS011;69034;49.444;7.758;2023-06-22T16:45:07;7.07;;;1.70;;
79570;SDS011;69034;49.444;7.758;2023-06-22T16:49:07;6.15;;;2.20;;
79570;SDS011;69034;49.444;7.758;2023-06-22T16:53:08;8.02;;;2.00;;
79570;SDS011;69034;49.444;7.758;2023-06-22T16:57:09;11.15;;;2.20;;
79570;SDS011;69034;49.444;7.758;2023-06-22T17:01:11;6.68;;;2.03;;
79570;SDS011;69034;49.444;7.758;2023-06-22T17:05:14;4.78;;;2.20;;
79570;SDS011;69034;49.444;7.758;2023-06-22T17:09:17;4.28;;;1.95;;
79570;SDS011;69034;49.444;7.758;2023-06-22T17:13:18;3.38;;;1.70;;
79570;SDS011;69034;49.444;7.758;2023-06-22T17:17:19;5.90;;;2.10;;
79570;SDS011;69034;49.444;7.758;2023-06-22T17:21:25;5.28;;;2.17;;
79570;SDS011;69034;49.444;7.758;2023-06-22T17:25:28;6.55;;;2.10;;
79570;SDS011;69034;49.444;7.758;2023-06-22T17:29:32;5.70;;;2.03;;
79570;SDS011;69034;49.444;7.758;2023-06-22T17:33:34;5.63;;;1.95;;
79570;SDS011;69034;49.444;7.758;2023-06-22T17:37:51;8.13;;;2.28;;
79570;SDS011;69034;49.444;7.758;2023-06-22T17:41:55;6.10;;;1.90;;
79570;SDS011;69034;49.444;7.758;2023-06-22T17:45:59;8.77;;;2.05;;
79570;SDS011;69034;49.444;7.758;2023-06-22T17:50:04;6.28;;;1.52;;
79570;SDS011;69034;49.444;7.758;2023-06-22T17:58:06;6.95;;;1.77;;
79570;SDS011;69034;49.444;7.758;2023-06-22T18:02:08;4.47;;;1.17;;
79570;SDS011;69034;49.444;7.758;2023-06-22T18:06:11;4.80;;;1.20;;
79570;SDS011;69034;49.444;7.758;2023-06-22T18:10:12;4.88;;;1.40;;
79570;SDS011;69034;49.444;7.758;2023-06-22T18:14:14;2.40;;;0.98;;
79570;SDS011;69034;49.444;7.758;2023-06-22T18:18:15;4.95;;;1.20;;
79570;SDS011;69034;49.444;7.758;2023-06-22T18:22:17;3.40;;;1.20;;
79570;SDS011;69034;49.444;7.758;2023-06-22T18:26:22;2.67;;;1.00;;
79570;SDS011;69034;49.444;7.758;2023-06-22T18:30:26;5.65;;;0.80;;
79570;SDS011;69034;49.444;7.758;2023-06-22T18:34:28;2.90;;;0.90;;
79570;SDS011;69034;49.444;7.758;2023-06-22T18:38:28;2.90;;;1.10;;
79570;SDS011;69034;49.444;7.758;2023-06-22T18:42:29;1.88;;;0.75;;
79570;SDS011;69034;49.444;7.758;2023-06-22T18:50:43;2.72;;;0.45;;
79570;SDS011;69034;49.444;7.758;2023-06-22T18:54:48;1.52;;;0.60;;
79570;SDS011;69034;49.444;7.758;2023-06-22T18:58:55;2.00;;;0.80;;
79570;SDS011;69034;49.444;7.758;2023-06-22T19:02:59;2.03;;;0.65;;
79570;SDS011;69034;49.444;7.758;2023-06-22T19:07:00;1.70;;;0.60;;
79570;SDS011;69034;49.444;7.758;2023-06-22T19:11:11;2.50;;;1.10;;
79570;SDS011;69034;49.444;7.758;2023-06-22T19:15:15;3.88;;;1.30;;
79570;SDS011;69034;49.444;7.758;2023-06-22T19:19:16;2.45;;;0.93;;
79570;SDS011;69034;49.444;7.758;2023-06-22T19:23:23;2.50;;;1.05;;
79570;SDS011;69034;49.444;7.758;2023-06-22T19:27:29;2.25;;;0.90;;
79570;SDS011;69034;49.444;7.758;2023-06-22T19:31:30;2.00;;;0.80;;
79570;SDS011;69034;49.444;7.758;2023-06-22T19:35:32;3.70;;;1.00;;
79570;SDS011;69034;49.444;7.758;2023-06-22T19:39:36;1.92;;;0.70;;
79570;SDS011;69034;49.444;7.758;2023-06-22T19:43:36;2.38;;;0.77;;
79570;SDS011;69034;49.444;7.758;2023-06-22T19:47:38;2.80;;;0.80;;
79570;SDS011;69034;49.444;7.758;2023-06-22T19:51:39;3.05;;;0.70;;
79570;SDS011;69034;49.444;7.758;2023-06-22T19:55:40;2.53;;;0.88;;
79570;SDS011;69034;49.444;7.758;2023-06-22T19:59:42;1.98;;;0.80;;
79570;SDS011;69034;49.444;7.758;2023-06-22T20:03:45;3.55;;;1.23;;
79570;SDS011;69034;49.444;7.758;2023-06-22T20:07:45;2.65;;;0.90;;
79570;SDS011;69034;49.444;7.758;2023-06-22T20:11:46;2.22;;;0.90;;
79570;SDS011;69034;49.444;7.758;2023-06-22T20:15:47;1.30;;;0.60;;
79570;SDS011;69034;49.444;7.758;2023-06-22T20:19:52;2.08;;;0.85;;
79570;SDS011;69034;49.444;7.758;2023-06-22T20:23:53;2.50;;;1.02;;
79570;SDS011;69034;49.444;7.758;2023-06-22T20:27:54;3.10;;;0.80;;
79570;SDS011;69034;49.444;7.758;2023-06-22T20:36:25;2.20;;;0.77;;
79570;SDS011;69034;49.444;7.758;2023-06-22T20:40:27;2.50;;;1.02;;
79570;SDS011;69034;49.444;7.758;2023-06-22T20:44:28;2.53;;;1.00;;
79570;SDS011;69034;49.444;7.758;2023-06-22T20:52:33;2.75;;;1.05;;
79570;SDS011;69034;49.444;7.758;2023-06-22T20:56:34;2.55;;;0.82;;
79570;SDS011;69034;49.444;7.758;2023-06-22T21:00:35;3.20;;;1.00;;
79570;SDS011;69034;49.444;7.758;2023-06-22T21:04:36;2.90;;;1.00;;
79570;SDS011;69034;49.444;7.758;2023-06-22T21:08:39;5.78;;;0.98;;
79570;SDS011;69034;49.444;7.758;2023-06-22T21:12:39;5.93;;;1.17;;
79570;SDS011;69034;49.444;7.758;2023-06-22T21:16:40;3.15;;;1.20;;
79570;SDS011;69034;49.444;7.758;2023-06-22T21:20:41;3.70;;;1.20;;
79570;SDS011;69034;49.444;7.758;2023-06-22T21:24:42;3.70;;;1.20;;
79570;SDS011;69034;49.444;7.758;2023-06-22T21:28:42;3.00;;;1.13;;
79570;SDS011;69034;49.444;7.758;2023-06-22T21:32:43;2.72;;;0.90;;
79570;SDS011;69034;49.444;7.758;2023-06-22T21:36:44;2.75;;;0.90;;
79570;SDS011;69034;49.444;7.758;2023-06-22T21:40:44;2.50;;;0.90;;
79570;SDS011;69034;49.444;7.758;2023-06-22T21:44:45;2.63;;;1.13;;
79570;SDS011;69034;49.444;7.758;2023-06-22T21:48:46;5.30;;;0.77;;
79570;SDS011;69034;49.444;7.758;2023-06-22T21:52:46;4.13;;;0.80;;
79570;SDS011;69034;49.444;7.758;2023-06-22T21:56:47;2.20;;;0.80;;
79570;SDS011;69034;49.444;7.758;2023-06-22T22:00:47;1.65;;;0.70;;
79570;SDS011;69034;49.444;7.758;2023-06-22T22:04:48;1.45;;;0.50;;
79570;SDS011;69034;49.444;7.758;2023-06-22T22:08:51;2.60;;;0.38;;
79570;SDS011;69034;49.444;7.758;2023-06-22T22:12:52;2.45;;;0.60;;
79570;SDS011;69034;49.444;7.758;2023-06-22T22:16:52;1.65;;;0.60;;
79570;SDS011;69034;49.444;7.758;2023-06-22T22:20:53;1.33;;;0.47;;
79570;SDS011;69034;49.444;7.758;2023-06-22T22:24:54;2.10;;;0.75;;
79570;SDS011;69034;49.444;7.758;2023-06-22T22:28:54;1.90;;;0.70;;
79570;SDS011;69034;49.444;7.758;2023-06-22T22:32:55;1.63;;;0.70;;
79570;SDS011;69034;49.444;7.758;2023-06-22T22:36:56;2.15;;;0.70;;
79570;SDS011;69034;49.444;7.758;2023-06-22T22:40:56;2.30;;;1.00;;
79570;SDS011;69034;49.444;7.758;2023-06-22T22:44:57;2.70;;;1.08;;
79570;SDS011;69034;49.444;7.758;2023-06-22T22:48:59;2.60;;;0.80;;
79570;SDS011;69034;49.444;7.758;2023-06-22T22:53:00;4.03;;;1.30;;
79570;SDS011;69034;49.444;7.758;2023-06-22T22:57:00;3.25;;;1.30;;
79570;SDS011;69034;49.444;7.758;2023-06-22T23:01:04;3.75;;;1.75;;
79570;SDS011;69034;49.444;7.758;2023-06-22T23:05:06;4.65;;;1.45;;
79570;SDS011;69034;49.444;7.758;2023-06-22T23:09:07;3.55;;;1.52;;
79570;SDS011;69034;49.444;7.758;2023-06-22T23:13:08;3.88;;;2.00;;
79570;SDS011;69034;49.444;7.758;2023-06-22T23:17:09;4.30;;;1.90;;
79570;SDS011;69034;49.444;7.758;2023-06-22T23:21:10;4.90;;;2.15;;
79570;SDS011;69034;49.444;7.758;2023-06-22T23:25:11;4.03;;;1.98;;
79570;SDS011;69034;49.444;7.758;2023-06-22T23:29:12;4.03;;;2.03;;
79570;SDS011;69034;49.444;7.758;2023-06-22T23:33:13;5.45;;;2.55;;
79570;SDS011;69034;49.444;7.758;2023-06-22T23:37:14;6.40;;;2.50;;
79570;SDS011;69034;49.444;7.758;2023-06-22T23:41:14;5.32;;;2.63;;
79570;SDS011;69034;49.444;7.758;2023-06-22T23:45:16;4.65;;;2.30;;
79570;SDS011;69034;49.444;7.758;2023-06-22T23:49:21;6.70;;;2.60;;
79570;SDS011;69034;49.444;7.758;2023-06-22T23:53:22;5.55;;;2.75;;
79570;SDS011;69034;49.444;7.758;2023-06-22T23:57:22;6.60;;;2.92;;
